sensor_id;sensor_type;location;lat;lon;timestamp;P1;durP1;ratioP1;P2;durP2;ratioP2
65597;SDS011;52267;51.984;20.956;2024-03-08T00:01:41;89.50;;;44.80;;
65597;SDS011;52267;51.984;20.956;2024-03-08T00:04:10;85.30;;;45.80;;
65597;SDS011;52267;51.984;20.956;2024-03-08T00:06:37;78.90;;;44.60;;
65597;SDS011;52267;51.984;20.956;2024-03-08T00:09:04;81.20;;;42.10;;
65597;SDS011;52267;51.984;20.956;2024-03-08T00:11:31;89.70;;;45.00;;
65597;SDS011;52267;51.984;20.956;2024-03-08T00:13:58;86.00;;;44.00;;
65597;SDS011;52267;51.984;20.956;2024-03-08T00:16:25;84.00;;;44.00;;
65597;SDS011;52267;51.984;20.956;2024-03-08T00:18:52;93.10;;;47.00;;
65597;SDS011;52267;51.984;20.956;2024-03-08T00:21:19;83.60;;;43.60;;
65597;SDS011;52267;51.984;20.956;2024-03-08T00:23:46;82.00;;;44.30;;
65597;SDS011;52267;51.984;20.956;2024-03-08T00:26:13;91.30;;;44.50;;
65597;SDS011;52267;51.984;20.956;2024-03-08T00:28:41;86.80;;;44.10;;
65597;SDS011;52267;51.984;20.956;2024-03-08T00:31:08;85.50;;;44.80;;
65597;SDS011;52267;51.984;20.956;2024-03-08T00:33:35;85.00;;;44.30;;
65597;SDS011;52267;51.984;20.956;2024-03-08T00:36:03;82.90;;;43.20;;
65597;SDS011;52267;51.984;20.956;2024-03-08T00:38:31;76.70;;;43.20;;
65597;SDS011;52267;51.984;20.956;2024-03-08T00:40:58;81.00;;;41.20;;
65597;SDS011;52267;51.984;20.956;2024-03-08T00:43:25;83.40;;;42.40;;
65597;SDS011;52267;51.984;20.956;2024-03-08T00:45:52;78.10;;;42.00;;
65597;SDS011;52267;51.984;20.956;2024-03-08T00:48:19;86.60;;;43.80;;
65597;SDS011;52267;51.984;20.956;2024-03-08T00:50:47;86.90;;;42.00;;
65597;SDS011;52267;51.984;20.956;2024-03-08T00:53:14;89.30;;;41.50;;
65597;SDS011;52267;51.984;20.956;2024-03-08T00:55:41;89.60;;;42.50;;
65597;SDS011;52267;51.984;20.956;2024-03-08T00:58:09;84.40;;;43.40;;
65597;SDS011;52267;51.984;20.956;2024-03-08T01:00:36;92.10;;;43.50;;
65597;SDS011;52267;51.984;20.956;2024-03-08T01:03:05;86.40;;;41.20;;
65597;SDS011;52267;51.984;20.956;2024-03-08T01:05:33;79.40;;;41.90;;
65597;SDS011;52267;51.984;20.956;2024-03-08T01:08:01;82.60;;;40.60;;
65597;SDS011;52267;51.984;20.956;2024-03-08T01:10:29;86.30;;;43.50;;
65597;SDS011;52267;51.984;20.956;2024-03-08T01:12:56;81.70;;;39.90;;
65597;SDS011;52267;51.984;20.956;2024-03-08T01:15:26;78.80;;;40.20;;
65597;SDS011;52267;51.984;20.956;2024-03-08T01:17:53;78.90;;;40.50;;
65597;SDS011;52267;51.984;20.956;2024-03-08T01:20:20;72.40;;;38.90;;
65597;SDS011;52267;51.984;20.956;2024-03-08T01:22:47;75.80;;;39.10;;
65597;SDS011;52267;51.984;20.956;2024-03-08T01:25:15;81.90;;;40.90;;
65597;SDS011;52267;51.984;20.956;2024-03-08T01:27:42;80.40;;;42.20;;
65597;SDS011;52267;51.984;20.956;2024-03-08T01:30:09;81.40;;;40.70;;
65597;SDS011;52267;51.984;20.956;2024-03-08T01:32:36;74.20;;;39.70;;
65597;SDS011;52267;51.984;20.956;2024-03-08T01:35:03;79.50;;;40.90;;
65597;SDS011;52267;51.984;20.956;2024-03-08T01:37:31;79.70;;;39.20;;
65597;SDS011;52267;51.984;20.956;2024-03-08T01:39:58;75.30;;;39.30;;
65597;SDS011;52267;51.984;20.956;2024-03-08T01:42:25;79.40;;;38.30;;
65597;SDS011;52267;51.984;20.956;2024-03-08T01:44:52;80.90;;;39.70;;
65597;SDS011;52267;51.984;20.956;2024-03-08T01:47:20;78.30;;;39.60;;
65597;SDS011;52267;51.984;20.956;2024-03-08T01:49:50;78.00;;;41.20;;
65597;SDS011;52267;51.984;20.956;2024-03-08T01:52:17;78.90;;;40.50;;
65597;SDS011;52267;51.984;20.956;2024-03-08T01:54:49;78.60;;;40.10;;
65597;SDS011;52267;51.984;20.956;2024-03-08T01:57:16;72.60;;;40.30;;
65597;SDS011;52267;51.984;20.956;2024-03-08T01:59:43;77.20;;;42.50;;
65597;SDS011;52267;51.984;20.956;2024-03-08T02:02:11;85.30;;;40.50;;
65597;SDS011;52267;51.984;20.956;2024-03-08T02:07:09;87.20;;;39.70;;
65597;SDS011;52267;51.984;20.956;2024-03-08T02:09:36;70.50;;;37.70;;
65597;SDS011;52267;51.984;20.956;2024-03-08T02:12:03;72.50;;;35.20;;
65597;SDS011;52267;51.984;20.956;2024-03-08T02:14:30;72.50;;;37.80;;
65597;SDS011;52267;51.984;20.956;2024-03-08T02:17:01;72.60;;;39.40;;
65597;SDS011;52267;51.984;20.956;2024-03-08T02:19:28;75.40;;;38.70;;
65597;SDS011;52267;51.984;20.956;2024-03-08T02:21:55;76.80;;;38.00;;
65597;SDS011;52267;51.984;20.956;2024-03-08T02:24:23;75.10;;;38.10;;
65597;SDS011;52267;51.984;20.956;2024-03-08T02:26:50;76.60;;;38.40;;
65597;SDS011;52267;51.984;20.956;2024-03-08T02:29:18;71.10;;;37.70;;
65597;SDS011;52267;51.984;20.956;2024-03-08T02:31:45;71.90;;;39.10;;
65597;SDS011;52267;51.984;20.956;2024-03-08T02:34:12;78.10;;;40.80;;
65597;SDS011;52267;51.984;20.956;2024-03-08T02:36:39;74.90;;;39.60;;
65597;SDS011;52267;51.984;20.956;2024-03-08T02:39:06;73.30;;;39.90;;
65597;SDS011;52267;51.984;20.956;2024-03-08T02:41:33;76.30;;;37.20;;
65597;SDS011;52267;51.984;20.956;2024-03-08T02:44:00;72.70;;;37.20;;
65597;SDS011;52267;51.984;20.956;2024-03-08T02:46:27;74.10;;;38.30;;
65597;SDS011;52267;51.984;20.956;2024-03-08T02:48:54;74.70;;;35.70;;
65597;SDS011;52267;51.984;20.956;2024-03-08T02:51:21;79.40;;;38.40;;
65597;SDS011;52267;51.984;20.956;2024-03-08T02:53:48;73.80;;;38.60;;
65597;SDS011;52267;51.984;20.956;2024-03-08T02:56:18;77.20;;;39.50;;
65597;SDS011;52267;51.984;20.956;2024-03-08T02:58:45;73.60;;;35.70;;
65597;SDS011;52267;51.984;20.956;2024-03-08T03:01:15;72.90;;;37.90;;
65597;SDS011;52267;51.984;20.956;2024-03-08T03:03:42;72.90;;;37.10;;
65597;SDS011;52267;51.984;20.956;2024-03-08T03:06:09;69.20;;;36.60;;
65597;SDS011;52267;51.984;20.956;2024-03-08T03:08:36;75.20;;;38.10;;
65597;SDS011;52267;51.984;20.956;2024-03-08T03:11:03;73.70;;;39.00;;
65597;SDS011;52267;51.984;20.956;2024-03-08T03:13:30;66.50;;;35.70;;
65597;SDS011;52267;51.984;20.956;2024-03-08T03:15:57;71.30;;;36.10;;
65597;SDS011;52267;51.984;20.956;2024-03-08T03:18:24;77.00;;;36.80;;
65597;SDS011;52267;51.984;20.956;2024-03-08T03:20:52;66.90;;;34.70;;
65597;SDS011;52267;51.984;20.956;2024-03-08T03:23:19;71.80;;;37.00;;
65597;SDS011;52267;51.984;20.956;2024-03-08T03:25:47;72.50;;;38.40;;
65597;SDS011;52267;51.984;20.956;2024-03-08T03:28:14;69.50;;;36.40;;
65597;SDS011;52267;51.984;20.956;2024-03-08T03:30:46;78.50;;;38.70;;
65597;SDS011;52267;51.984;20.956;2024-03-08T03:33:13;77.50;;;37.50;;
65597;SDS011;52267;51.984;20.956;2024-03-08T03:35:41;72.20;;;38.00;;
65597;SDS011;52267;51.984;20.956;2024-03-08T03:38:09;73.50;;;38.30;;
65597;SDS011;52267;51.984;20.956;2024-03-08T03:40:37;71.80;;;36.40;;
65597;SDS011;52267;51.984;20.956;2024-03-08T03:43:05;77.90;;;37.80;;
65597;SDS011;52267;51.984;20.956;2024-03-08T03:45:32;71.20;;;37.00;;
65597;SDS011;52267;51.984;20.956;2024-03-08T03:48:04;80.00;;;37.00;;
65597;SDS011;52267;51.984;20.956;2024-03-08T03:50:35;77.80;;;36.20;;
65597;SDS011;52267;51.984;20.956;2024-03-08T03:53:03;81.10;;;38.50;;
65597;SDS011;52267;51.984;20.956;2024-03-08T03:55:30;69.50;;;36.80;;
65597;SDS011;52267;51.984;20.956;2024-03-08T03:57:57;65.60;;;34.50;;
65597;SDS011;52267;51.984;20.956;2024-03-08T04:00:25;73.90;;;35.40;;
65597;SDS011;52267;51.984;20.956;2024-03-08T04:02:53;69.00;;;35.10;;
65597;SDS011;52267;51.984;20.956;2024-03-08T04:05:21;67.90;;;34.80;;
65597;SDS011;52267;51.984;20.956;2024-03-08T04:07:48;74.60;;;35.10;;
65597;SDS011;52267;51.984;20.956;2024-03-08T04:10:15;67.70;;;36.00;;
65597;SDS011;52267;51.984;20.956;2024-03-08T04:12:42;77.20;;;36.60;;
65597;SDS011;52267;51.984;20.956;2024-03-08T04:15:09;72.70;;;37.00;;
65597;SDS011;52267;51.984;20.956;2024-03-08T04:17:37;73.40;;;36.30;;
65597;SDS011;52267;51.984;20.956;2024-03-08T04:20:04;85.30;;;39.10;;
65597;SDS011;52267;51.984;20.956;2024-03-08T04:22:37;77.50;;;38.50;;
65597;SDS011;52267;51.984;20.956;2024-03-08T04:25:04;72.70;;;38.20;;
65597;SDS011;52267;51.984;20.956;2024-03-08T04:27:33;73.40;;;36.90;;
65597;SDS011;52267;51.984;20.956;2024-03-08T04:30:01;76.10;;;35.70;;
65597;SDS011;52267;51.984;20.956;2024-03-08T04:32:29;73.20;;;37.10;;
65597;SDS011;52267;51.984;20.956;2024-03-08T04:34:58;80.90;;;37.60;;
65597;SDS011;52267;51.984;20.956;2024-03-08T04:37:27;78.00;;;37.70;;
65597;SDS011;52267;51.984;20.956;2024-03-08T04:39:57;72.30;;;35.80;;
65597;SDS011;52267;51.984;20.956;2024-03-08T04:42:24;77.40;;;37.60;;
65597;SDS011;52267;51.984;20.956;2024-03-08T04:44:52;72.30;;;33.60;;
65597;SDS011;52267;51.984;20.956;2024-03-08T04:47:20;78.10;;;36.70;;
65597;SDS011;52267;51.984;20.956;2024-03-08T04:49:47;71.30;;;35.20;;
65597;SDS011;52267;51.984;20.956;2024-03-08T04:52:14;72.90;;;36.20;;
65597;SDS011;52267;51.984;20.956;2024-03-08T04:54:41;83.80;;;37.70;;
65597;SDS011;52267;51.984;20.956;2024-03-08T04:57:08;76.20;;;36.70;;
65597;SDS011;52267;51.984;20.956;2024-03-08T04:59:35;75.20;;;37.00;;
65597;SDS011;52267;51.984;20.956;2024-03-08T05:02:02;80.40;;;36.60;;
65597;SDS011;52267;51.984;20.956;2024-03-08T05:04:30;74.40;;;35.30;;
65597;SDS011;52267;51.984;20.956;2024-03-08T05:06:57;74.00;;;36.50;;
65597;SDS011;52267;51.984;20.956;2024-03-08T05:09:24;80.20;;;38.80;;
65597;SDS011;52267;51.984;20.956;2024-03-08T05:11:51;84.90;;;38.10;;
65597;SDS011;52267;51.984;20.956;2024-03-08T05:14:17;82.70;;;37.50;;
65597;SDS011;52267;51.984;20.956;2024-03-08T05:16:46;76.40;;;37.20;;
65597;SDS011;52267;51.984;20.956;2024-03-08T05:19:17;75.70;;;36.50;;
65597;SDS011;52267;51.984;20.956;2024-03-08T05:21:49;82.10;;;37.20;;
65597;SDS011;52267;51.984;20.956;2024-03-08T05:24:17;76.70;;;37.60;;
65597;SDS011;52267;51.984;20.956;2024-03-08T05:26:45;74.30;;;36.30;;
65597;SDS011;52267;51.984;20.956;2024-03-08T05:29:12;83.40;;;37.70;;
65597;SDS011;52267;51.984;20.956;2024-03-08T05:31:50;75.70;;;37.10;;
65597;SDS011;52267;51.984;20.956;2024-03-08T05:34:19;76.40;;;37.30;;
65597;SDS011;52267;51.984;20.956;2024-03-08T05:36:49;77.80;;;37.00;;
65597;SDS011;52267;51.984;20.956;2024-03-08T05:39:17;80.00;;;38.20;;
65597;SDS011;52267;51.984;20.956;2024-03-08T05:41:46;70.40;;;34.10;;
65597;SDS011;52267;51.984;20.956;2024-03-08T05:44:14;73.70;;;34.60;;
65597;SDS011;52267;51.984;20.956;2024-03-08T05:46:41;64.40;;;33.40;;
65597;SDS011;52267;51.984;20.956;2024-03-08T05:49:08;68.00;;;33.90;;
65597;SDS011;52267;51.984;20.956;2024-03-08T05:51:37;66.40;;;34.60;;
65597;SDS011;52267;51.984;20.956;2024-03-08T05:54:11;73.00;;;34.80;;
65597;SDS011;52267;51.984;20.956;2024-03-08T05:56:39;67.50;;;34.10;;
65597;SDS011;52267;51.984;20.956;2024-03-08T05:59:10;75.20;;;35.90;;
65597;SDS011;52267;51.984;20.956;2024-03-08T06:01:37;77.90;;;36.70;;
65597;SDS011;52267;51.984;20.956;2024-03-08T06:04:04;85.70;;;39.00;;
65597;SDS011;52267;51.984;20.956;2024-03-08T06:06:32;83.30;;;37.20;;
65597;SDS011;52267;51.984;20.956;2024-03-08T06:08:59;80.90;;;39.20;;
65597;SDS011;52267;51.984;20.956;2024-03-08T06:11:26;80.80;;;40.30;;
65597;SDS011;52267;51.984;20.956;2024-03-08T06:13:55;77.10;;;39.90;;
65597;SDS011;52267;51.984;20.956;2024-03-08T06:16:26;84.20;;;39.90;;
65597;SDS011;52267;51.984;20.956;2024-03-08T06:18:57;83.00;;;40.70;;
65597;SDS011;52267;51.984;20.956;2024-03-08T06:21:24;150.50;;;66.40;;
65597;SDS011;52267;51.984;20.956;2024-03-08T06:23:54;143.40;;;67.90;;
65597;SDS011;52267;51.984;20.956;2024-03-08T06:26:21;119.20;;;59.40;;
65597;SDS011;52267;51.984;20.956;2024-03-08T06:28:49;126.80;;;59.10;;
65597;SDS011;52267;51.984;20.956;2024-03-08T06:31:17;118.60;;;56.60;;
65597;SDS011;52267;51.984;20.956;2024-03-08T06:33:44;117.00;;;57.40;;
65597;SDS011;52267;51.984;20.956;2024-03-08T06:36:11;151.90;;;67.30;;
65597;SDS011;52267;51.984;20.956;2024-03-08T06:38:39;140.60;;;65.00;;
65597;SDS011;52267;51.984;20.956;2024-03-08T06:41:09;141.90;;;67.20;;
65597;SDS011;52267;51.984;20.956;2024-03-08T06:43:45;149.10;;;66.60;;
65597;SDS011;52267;51.984;20.956;2024-03-08T06:48:41;125.00;;;59.20;;
65597;SDS011;52267;51.984;20.956;2024-03-08T06:51:08;117.90;;;53.80;;
65597;SDS011;52267;51.984;20.956;2024-03-08T06:53:37;111.90;;;49.20;;
65597;SDS011;52267;51.984;20.956;2024-03-08T06:56:05;102.20;;;46.70;;
65597;SDS011;52267;51.984;20.956;2024-03-08T06:58:32;87.10;;;43.60;;
65597;SDS011;52267;51.984;20.956;2024-03-08T07:00:59;84.60;;;40.70;;
65597;SDS011;52267;51.984;20.956;2024-03-08T07:03:27;79.70;;;39.20;;
65597;SDS011;52267;51.984;20.956;2024-03-08T07:05:56;76.10;;;38.20;;
65597;SDS011;52267;51.984;20.956;2024-03-08T07:08:26;83.30;;;38.30;;
65597;SDS011;52267;51.984;20.956;2024-03-08T07:10:56;78.30;;;38.10;;
65597;SDS011;52267;51.984;20.956;2024-03-08T07:13:24;82.70;;;38.90;;
65597;SDS011;52267;51.984;20.956;2024-03-08T07:15:51;76.30;;;39.10;;
65597;SDS011;52267;51.984;20.956;2024-03-08T07:18:19;68.70;;;36.60;;
65597;SDS011;52267;51.984;20.956;2024-03-08T07:20:46;75.20;;;39.50;;
65597;SDS011;52267;51.984;20.956;2024-03-08T07:23:13;76.30;;;37.30;;
65597;SDS011;52267;51.984;20.956;2024-03-08T07:26:00;73.30;;;35.00;;
65597;SDS011;52267;51.984;20.956;2024-03-08T07:28:27;68.20;;;35.40;;
65597;SDS011;52267;51.984;20.956;2024-03-08T07:31:00;73.60;;;34.30;;
65597;SDS011;52267;51.984;20.956;2024-03-08T07:36:05;64.80;;;30.60;;
65597;SDS011;52267;51.984;20.956;2024-03-08T07:38:32;56.90;;;29.70;;
65597;SDS011;52267;51.984;20.956;2024-03-08T07:41:00;62.10;;;32.50;;
65597;SDS011;52267;51.984;20.956;2024-03-08T07:43:27;53.40;;;27.40;;
65597;SDS011;52267;51.984;20.956;2024-03-08T07:45:54;55.50;;;30.50;;
65597;SDS011;52267;51.984;20.956;2024-03-08T07:48:21;44.20;;;25.70;;
65597;SDS011;52267;51.984;20.956;2024-03-08T07:50:48;41.90;;;22.10;;
65597;SDS011;52267;51.984;20.956;2024-03-08T07:53:16;45.10;;;24.10;;
65597;SDS011;52267;51.984;20.956;2024-03-08T07:55:43;41.50;;;22.10;;
65597;SDS011;52267;51.984;20.956;2024-03-08T07:58:11;38.30;;;20.20;;
65597;SDS011;52267;51.984;20.956;2024-03-08T08:00:39;41.80;;;21.30;;
65597;SDS011;52267;51.984;20.956;2024-03-08T08:03:09;39.10;;;21.20;;
65597;SDS011;52267;51.984;20.956;2024-03-08T08:05:37;35.30;;;19.30;;
65597;SDS011;52267;51.984;20.956;2024-03-08T08:08:07;36.20;;;20.10;;
65597;SDS011;52267;51.984;20.956;2024-03-08T08:10:37;35.20;;;20.60;;
65597;SDS011;52267;51.984;20.956;2024-03-08T08:16:17;34.50;;;18.00;;
65597;SDS011;52267;51.984;20.956;2024-03-08T08:18:44;31.80;;;16.90;;
65597;SDS011;52267;51.984;20.956;2024-03-08T08:21:13;29.90;;;16.20;;
65597;SDS011;52267;51.984;20.956;2024-03-08T08:23:40;31.70;;;17.80;;
65597;SDS011;52267;51.984;20.956;2024-03-08T08:26:07;28.80;;;16.40;;
65597;SDS011;52267;51.984;20.956;2024-03-08T08:28:34;25.60;;;15.10;;
65597;SDS011;52267;51.984;20.956;2024-03-08T08:31:01;28.60;;;16.00;;
65597;SDS011;52267;51.984;20.956;2024-03-08T08:33:30;22.60;;;12.70;;
65597;SDS011;52267;51.984;20.956;2024-03-08T08:35:57;25.30;;;13.10;;
65597;SDS011;52267;51.984;20.956;2024-03-08T08:38:25;26.10;;;14.30;;
65597;SDS011;52267;51.984;20.956;2024-03-08T08:40:51;28.30;;;17.00;;
65597;SDS011;52267;51.984;20.956;2024-03-08T08:43:19;26.10;;;14.30;;
65597;SDS011;52267;51.984;20.956;2024-03-08T08:45:47;26.20;;;15.60;;
65597;SDS011;52267;51.984;20.956;2024-03-08T08:48:16;29.10;;;16.20;;
65597;SDS011;52267;51.984;20.956;2024-03-08T08:50:43;25.40;;;14.40;;
65597;SDS011;52267;51.984;20.956;2024-03-08T08:53:11;27.70;;;14.60;;
65597;SDS011;52267;51.984;20.956;2024-03-08T08:55:40;26.00;;;13.20;;
65597;SDS011;52267;51.984;20.956;2024-03-08T08:58:07;29.40;;;16.70;;
65597;SDS011;52267;51.984;20.956;2024-03-08T09:00:34;26.10;;;13.10;;
65597;SDS011;52267;51.984;20.956;2024-03-08T09:03:01;22.60;;;12.90;;
65597;SDS011;52267;51.984;20.956;2024-03-08T09:05:29;28.30;;;16.40;;
65597;SDS011;52267;51.984;20.956;2024-03-08T09:07:56;24.40;;;15.80;;
65597;SDS011;52267;51.984;20.956;2024-03-08T09:10:23;24.20;;;13.40;;
65597;SDS011;52267;51.984;20.956;2024-03-08T09:12:50;21.00;;;12.50;;
65597;SDS011;52267;51.984;20.956;2024-03-08T09:15:17;25.90;;;15.80;;
65597;SDS011;52267;51.984;20.956;2024-03-08T09:17:44;23.30;;;13.40;;
65597;SDS011;52267;51.984;20.956;2024-03-08T09:20:11;23.10;;;13.40;;
65597;SDS011;52267;51.984;20.956;2024-03-08T09:22:45;22.70;;;13.90;;
65597;SDS011;52267;51.984;20.956;2024-03-08T09:25:12;22.40;;;12.70;;
65597;SDS011;52267;51.984;20.956;2024-03-08T09:27:39;19.10;;;10.30;;
65597;SDS011;52267;51.984;20.956;2024-03-08T09:30:08;20.70;;;11.50;;
65597;SDS011;52267;51.984;20.956;2024-03-08T09:32:35;22.90;;;12.00;;
65597;SDS011;52267;51.984;20.956;2024-03-08T09:35:04;21.80;;;11.60;;
65597;SDS011;52267;51.984;20.956;2024-03-08T09:37:33;15.70;;;8.90;;
65597;SDS011;52267;51.984;20.956;2024-03-08T09:40:01;20.60;;;12.70;;
65597;SDS011;52267;51.984;20.956;2024-03-08T09:42:31;17.50;;;10.40;;
65597;SDS011;52267;51.984;20.956;2024-03-08T09:44:58;19.30;;;10.60;;
65597;SDS011;52267;51.984;20.956;2024-03-08T09:47:28;18.00;;;9.80;;
65597;SDS011;52267;51.984;20.956;2024-03-08T09:50:00;21.40;;;11.80;;
65597;SDS011;52267;51.984;20.956;2024-03-08T09:52:29;22.00;;;12.60;;
65597;SDS011;52267;51.984;20.956;2024-03-08T09:54:57;20.50;;;11.70;;
65597;SDS011;52267;51.984;20.956;2024-03-08T09:57:25;19.30;;;12.00;;
65597;SDS011;52267;51.984;20.956;2024-03-08T09:59:52;21.30;;;12.60;;
65597;SDS011;52267;51.984;20.956;2024-03-08T10:02:19;19.20;;;11.80;;
65597;SDS011;52267;51.984;20.956;2024-03-08T10:04:47;20.00;;;12.30;;
65597;SDS011;52267;51.984;20.956;2024-03-08T10:07:15;18.70;;;11.90;;
65597;SDS011;52267;51.984;20.956;2024-03-08T10:09:42;23.20;;;12.00;;
65597;SDS011;52267;51.984;20.956;2024-03-08T10:12:16;21.50;;;11.50;;
65597;SDS011;52267;51.984;20.956;2024-03-08T10:14:44;16.30;;;10.40;;
65597;SDS011;52267;51.984;20.956;2024-03-08T10:17:12;20.70;;;11.70;;
65597;SDS011;52267;51.984;20.956;2024-03-08T10:19:49;19.10;;;11.80;;
65597;SDS011;52267;51.984;20.956;2024-03-08T10:22:18;18.00;;;10.90;;
65597;SDS011;52267;51.984;20.956;2024-03-08T10:24:49;26.60;;;13.40;;
65597;SDS011;52267;51.984;20.956;2024-03-08T10:27:17;17.50;;;10.80;;
65597;SDS011;52267;51.984;20.956;2024-03-08T10:29:48;23.10;;;12.20;;
65597;SDS011;52267;51.984;20.956;2024-03-08T10:32:17;20.40;;;12.00;;
65597;SDS011;52267;51.984;20.956;2024-03-08T10:34:44;20.30;;;12.00;;
65597;SDS011;52267;51.984;20.956;2024-03-08T10:37:15;18.90;;;10.70;;
65597;SDS011;52267;51.984;20.956;2024-03-08T10:40:04;19.70;;;11.80;;
65597;SDS011;52267;51.984;20.956;2024-03-08T10:42:41;22.00;;;12.20;;
65597;SDS011;52267;51.984;20.956;2024-03-08T10:45:27;17.70;;;10.20;;
65597;SDS011;52267;51.984;20.956;2024-03-08T10:48:14;20.70;;;13.00;;
65597;SDS011;52267;51.984;20.956;2024-03-08T10:50:52;19.50;;;11.30;;
65597;SDS011;52267;51.984;20.956;2024-03-08T10:53:20;21.60;;;12.50;;
65597;SDS011;52267;51.984;20.956;2024-03-08T10:55:50;17.00;;;10.10;;
65597;SDS011;52267;51.984;20.956;2024-03-08T10:58:21;17.80;;;10.50;;
65597;SDS011;52267;51.984;20.956;2024-03-08T11:00:49;18.00;;;10.90;;
65597;SDS011;52267;51.984;20.956;2024-03-08T11:03:48;19.10;;;11.40;;
65597;SDS011;52267;51.984;20.956;2024-03-08T11:09:30;19.20;;;11.50;;
65597;SDS011;52267;51.984;20.956;2024-03-08T11:12:20;17.70;;;10.50;;
65597;SDS011;52267;51.984;20.956;2024-03-08T11:14:59;21.30;;;11.10;;
65597;SDS011;52267;51.984;20.956;2024-03-08T11:19:59;21.30;;;12.80;;
65597;SDS011;52267;51.984;20.956;2024-03-08T11:22:29;18.80;;;11.70;;
65597;SDS011;52267;51.984;20.956;2024-03-08T11:25:04;16.00;;;10.20;;
65597;SDS011;52267;51.984;20.956;2024-03-08T11:27:36;14.40;;;9.20;;
65597;SDS011;52267;51.984;20.956;2024-03-08T11:30:08;15.90;;;8.80;;
65597;SDS011;52267;51.984;20.956;2024-03-08T11:32:38;12.50;;;7.80;;
65597;SDS011;52267;51.984;20.956;2024-03-08T11:35:21;15.40;;;9.70;;
65597;SDS011;52267;51.984;20.956;2024-03-08T11:37:52;18.20;;;10.20;;
65597;SDS011;52267;51.984;20.956;2024-03-08T11:40:19;12.60;;;7.70;;
65597;SDS011;52267;51.984;20.956;2024-03-08T11:42:48;19.20;;;11.50;;
65597;SDS011;52267;51.984;20.956;2024-03-08T11:45:16;18.10;;;10.90;;
65597;SDS011;52267;51.984;20.956;2024-03-08T11:47:44;19.70;;;11.80;;
65597;SDS011;52267;51.984;20.956;2024-03-08T11:50:13;12.90;;;8.70;;
65597;SDS011;52267;51.984;20.956;2024-03-08T11:52:41;18.10;;;10.90;;
65597;SDS011;52267;51.984;20.956;2024-03-08T11:55:11;18.10;;;9.90;;
65597;SDS011;52267;51.984;20.956;2024-03-08T11:57:39;18.00;;;11.30;;
65597;SDS011;52267;51.984;20.956;2024-03-08T12:00:14;14.20;;;8.00;;
65597;SDS011;52267;51.984;20.956;2024-03-08T12:03:06;14.40;;;8.60;;
65597;SDS011;52267;51.984;20.956;2024-03-08T12:05:39;16.00;;;10.20;;
65597;SDS011;52267;51.984;20.956;2024-03-08T12:08:07;15.80;;;10.10;;
65597;SDS011;52267;51.984;20.956;2024-03-08T12:10:40;15.00;;;9.90;;
65597;SDS011;52267;51.984;20.956;2024-03-08T12:13:07;17.20;;;11.50;;
65597;SDS011;52267;51.984;20.956;2024-03-08T12:15:39;14.20;;;9.40;;
65597;SDS011;52267;51.984;20.956;2024-03-08T12:18:06;15.30;;;9.50;;
65597;SDS011;52267;51.984;20.956;2024-03-08T12:20:34;16.30;;;10.10;;
65597;SDS011;52267;51.984;20.956;2024-03-08T12:23:04;15.10;;;8.80;;
65597;SDS011;52267;51.984;20.956;2024-03-08T12:25:33;18.10;;;10.70;;
65597;SDS011;52267;51.984;20.956;2024-03-08T12:28:09;15.60;;;9.50;;
65597;SDS011;52267;51.984;20.956;2024-03-08T12:30:47;17.30;;;10.00;;
65597;SDS011;52267;51.984;20.956;2024-03-08T12:33:19;15.80;;;9.70;;
65597;SDS011;52267;51.984;20.956;2024-03-08T12:35:54;16.30;;;10.90;;
65597;SDS011;52267;51.984;20.956;2024-03-08T12:38:22;15.50;;;9.50;;
65597;SDS011;52267;51.984;20.956;2024-03-08T12:40:55;16.00;;;9.70;;
65597;SDS011;52267;51.984;20.956;2024-03-08T12:43:23;24.00;;;11.80;;
65597;SDS011;52267;51.984;20.956;2024-03-08T12:45:50;25.50;;;11.40;;
65597;SDS011;52267;51.984;20.956;2024-03-08T12:48:18;15.20;;;9.40;;
65597;SDS011;52267;51.984;20.956;2024-03-08T12:50:47;17.10;;;9.10;;
65597;SDS011;52267;51.984;20.956;2024-03-08T12:53:14;12.70;;;9.00;;
65597;SDS011;52267;51.984;20.956;2024-03-08T12:55:41;22.50;;;11.90;;
65597;SDS011;52267;51.984;20.956;2024-03-08T12:58:09;18.00;;;11.00;;
65597;SDS011;52267;51.984;20.956;2024-03-08T13:00:36;14.80;;;8.40;;
65597;SDS011;52267;51.984;20.956;2024-03-08T13:03:03;16.50;;;10.00;;
65597;SDS011;52267;51.984;20.956;2024-03-08T13:05:33;15.00;;;8.90;;
65597;SDS011;52267;51.984;20.956;2024-03-08T13:08:00;15.70;;;9.20;;
65597;SDS011;52267;51.984;20.956;2024-03-08T13:10:27;16.20;;;9.40;;
65597;SDS011;52267;51.984;20.956;2024-03-08T13:12:54;16.90;;;9.80;;
65597;SDS011;52267;51.984;20.956;2024-03-08T13:15:21;17.50;;;11.80;;
65597;SDS011;52267;51.984;20.956;2024-03-08T13:17:49;15.80;;;10.50;;
65597;SDS011;52267;51.984;20.956;2024-03-08T13:20:16;16.80;;;9.30;;
65597;SDS011;52267;51.984;20.956;2024-03-08T13:22:46;18.50;;;10.00;;
65597;SDS011;52267;51.984;20.956;2024-03-08T13:25:16;18.20;;;10.10;;
65597;SDS011;52267;51.984;20.956;2024-03-08T13:27:43;15.80;;;10.00;;
65597;SDS011;52267;51.984;20.956;2024-03-08T13:30:12;14.80;;;10.40;;
65597;SDS011;52267;51.984;20.956;2024-03-08T13:32:41;19.90;;;11.70;;
65597;SDS011;52267;51.984;20.956;2024-03-08T13:35:13;16.70;;;10.70;;
65597;SDS011;52267;51.984;20.956;2024-03-08T13:37:40;15.70;;;9.70;;
65597;SDS011;52267;51.984;20.956;2024-03-08T13:40:09;17.30;;;11.10;;
65597;SDS011;52267;51.984;20.956;2024-03-08T13:42:49;17.30;;;10.20;;
65597;SDS011;52267;51.984;20.956;2024-03-08T13:45:16;16.10;;;10.40;;
65597;SDS011;52267;51.984;20.956;2024-03-08T13:47:50;17.00;;;10.60;;
65597;SDS011;52267;51.984;20.956;2024-03-08T13:50:20;16.30;;;9.70;;
65597;SDS011;52267;51.984;20.956;2024-03-08T13:52:52;13.40;;;8.60;;
65597;SDS011;52267;51.984;20.956;2024-03-08T13:55:21;15.20;;;8.90;;
65597;SDS011;52267;51.984;20.956;2024-03-08T13:57:49;11.70;;;7.80;;
65597;SDS011;52267;51.984;20.956;2024-03-08T14:00:18;12.90;;;6.90;;
65597;SDS011;52267;51.984;20.956;2024-03-08T14:02:49;16.80;;;10.00;;
65597;SDS011;52267;51.984;20.956;2024-03-08T14:05:19;15.50;;;8.80;;
65597;SDS011;52267;51.984;20.956;2024-03-08T14:07:46;15.10;;;7.90;;
65597;SDS011;52267;51.984;20.956;2024-03-08T14:10:15;13.50;;;8.30;;
65597;SDS011;52267;51.984;20.956;2024-03-08T14:12:43;14.70;;;8.10;;
65597;SDS011;52267;51.984;20.956;2024-03-08T14:15:11;15.00;;;9.00;;
65597;SDS011;52267;51.984;20.956;2024-03-08T14:17:39;16.50;;;9.60;;
65597;SDS011;52267;51.984;20.956;2024-03-08T14:20:06;14.10;;;8.00;;
65597;SDS011;52267;51.984;20.956;2024-03-08T14:22:36;16.20;;;9.80;;
65597;SDS011;52267;51.984;20.956;2024-03-08T14:25:03;15.30;;;9.00;;
65597;SDS011;52267;51.984;20.956;2024-03-08T14:27:32;15.10;;;8.90;;
65597;SDS011;52267;51.984;20.956;2024-03-08T14:29:59;14.60;;;8.70;;
65597;SDS011;52267;51.984;20.956;2024-03-08T14:32:27;16.20;;;10.20;;
65597;SDS011;52267;51.984;20.956;2024-03-08T14:34:55;14.80;;;9.60;;
65597;SDS011;52267;51.984;20.956;2024-03-08T14:37:22;14.30;;;9.20;;